createdAt,value
2023-08-16T00:00:40.637Z,4.80
2023-08-16T00:03:29.097Z,4.80
2023-08-16T00:05:57.804Z,4.50
2023-08-16T00:08:26.156Z,4.10
2023-08-16T00:10:54.355Z,4.30
2023-08-16T00:13:22.444Z,4.70
2023-08-16T00:15:50.686Z,5.00
2023-08-16T00:18:18.792Z,4.50
2023-08-16T00:20:47.005Z,4.70
2023-08-16T00:23:15.245Z,4.80
2023-08-16T00:25:43.614Z,4.80
2023-08-16T00:28:11.895Z,4.80
2023-08-16T00:30:40.206Z,5.00
2023-08-16T00:33:08.651Z,4.90
2023-08-16T00:35:37.161Z,5.60
2023-08-16T00:38:05.361Z,5.20
2023-08-16T00:40:33.664Z,5.00
2023-08-16T00:43:01.690Z,4.90
2023-08-16T00:45:30.720Z,4.30
2023-08-16T00:47:59.684Z,5.30
2023-08-16T00:50:28.073Z,4.90
2023-08-16T00:52:56.512Z,5.20
2023-08-16T00:55:24.883Z,5.60
2023-08-16T00:57:53.543Z,5.70
2023-08-16T01:00:22.084Z,4.90
2023-08-16T01:02:50.576Z,5.10
2023-08-16T01:05:19.526Z,5.40
2023-08-16T01:07:47.770Z,4.90
2023-08-16T01:10:16.518Z,5.10
2023-08-16T01:12:54.050Z,5.20
2023-08-16T01:15:33.685Z,4.80
2023-08-16T01:18:03.301Z,4.70
2023-08-16T01:20:32.614Z,5.00
2023-08-16T01:23:13.418Z,5.00
2023-08-16T01:25:54.915Z,5.60
2023-08-16T01:28:24.097Z,6.00
2023-08-16T01:30:53.544Z,5.10
2023-08-16T01:33:21.793Z,5.50
2023-08-16T01:35:49.949Z,5.30
2023-08-16T01:38:18.417Z,5.00
2023-08-16T01:40:56.260Z,5.00
2023-08-16T01:43:25.671Z,5.50
2023-08-16T01:45:56.148Z,5.50
2023-08-16T01:48:26.725Z,5.40
2023-08-16T01:50:55.337Z,5.40
2023-08-16T01:53:23.554Z,5.20
2023-08-16T01:55:51.816Z,5.00
2023-08-16T01:58:20.105Z,4.80
2023-08-16T02:00:49.048Z,4.70
2023-08-16T02:03:17.692Z,6.40
2023-08-16T02:05:45.927Z,5.40
2023-08-16T02:08:14.265Z,5.70
2023-08-16T02:10:42.510Z,5.20
2023-08-16T02:13:10.777Z,5.30
2023-08-16T02:15:39.211Z,5.10
2023-08-16T02:18:12.522Z,5.40
2023-08-16T02:20:42.512Z,5.70
2023-08-16T02:23:10.947Z,5.70
2023-08-16T02:25:41.220Z,5.50
2023-08-16T02:28:09.524Z,5.90
2023-08-16T02:30:38.325Z,5.60
2023-08-16T02:33:06.954Z,5.60
2023-08-16T02:35:35.391Z,5.40
2023-08-16T02:38:03.914Z,5.00
2023-08-16T02:40:33.144Z,5.00
2023-08-16T02:43:01.267Z,5.80
2023-08-16T02:45:29.471Z,6.90
2023-08-16T02:47:58.795Z,7.00
2023-08-16T02:50:27.144Z,7.70
2023-08-16T02:52:55.354Z,6.40
2023-08-16T02:55:23.519Z,6.60
2023-08-16T02:57:53.578Z,6.30
2023-08-16T03:00:21.853Z,6.80
2023-08-16T03:02:50.205Z,6.60
2023-08-16T03:05:18.508Z,7.10
2023-08-16T03:07:46.674Z,6.30
2023-08-16T03:10:14.975Z,6.70
2023-08-16T03:12:43.435Z,6.40
2023-08-16T03:15:11.703Z,6.60
2023-08-16T03:17:39.935Z,6.60
2023-08-16T03:20:10.866Z,6.20
2023-08-16T03:22:39.464Z,5.80
2023-08-16T03:25:07.789Z,7.30
2023-08-16T03:27:36.263Z,6.00
2023-08-16T03:30:06.681Z,5.70
2023-08-16T03:32:35.701Z,6.30
2023-08-16T03:35:05.183Z,6.20
2023-08-16T03:37:33.758Z,6.20
2023-08-16T03:40:02.047Z,5.40
2023-08-16T03:42:30.096Z,6.60
2023-08-16T03:44:58.882Z,6.20
2023-08-16T03:47:28.411Z,5.90
2023-08-16T03:49:57.957Z,6.30
2023-08-16T03:52:29.593Z,6.00
2023-08-16T03:54:58.083Z,6.80
2023-08-16T03:57:26.514Z,5.50
2023-08-16T03:59:55.204Z,5.70
2023-08-16T04:02:24.234Z,6.00
2023-08-16T04:04:54.774Z,5.50
2023-08-16T04:07:23.950Z,5.70
2023-08-16T04:09:52.932Z,5.50
2023-08-16T04:12:21.168Z,5.50
2023-08-16T04:14:49.285Z,5.60
2023-08-16T04:17:18.274Z,5.40
2023-08-16T04:19:46.549Z,5.80
2023-08-16T04:22:14.946Z,5.80
2023-08-16T04:24:43.864Z,6.00
2023-08-16T04:27:12.040Z,5.70
2023-08-16T04:29:41.583Z,5.40
2023-08-16T04:32:09.887Z,5.80
2023-08-16T04:34:38.101Z,7.10
2023-08-16T04:37:07.104Z,8.20
2023-08-16T04:39:35.518Z,6.60
2023-08-16T04:42:05.010Z,6.90
2023-08-16T04:44:33.562Z,6.80
2023-08-16T04:47:01.858Z,7.70
2023-08-16T04:49:30.733Z,15.90
2023-08-16T04:51:59.647Z,17.00
2023-08-16T04:54:27.931Z,8.40
2023-08-16T04:56:56.729Z,7.30
2023-08-16T04:59:25.317Z,11.20
2023-08-16T05:01:53.964Z,23.20
2023-08-16T05:04:23.742Z,11.90
2023-08-16T05:06:52.284Z,6.80
2023-08-16T05:09:20.495Z,6.20
2023-08-16T05:11:48.965Z,5.80
2023-08-16T05:14:17.084Z,6.40
2023-08-16T05:16:45.415Z,6.20
2023-08-16T05:19:14.524Z,5.90
2023-08-16T05:21:44.447Z,17.40
2023-08-16T05:24:15.303Z,18.60
2023-08-16T05:26:43.919Z,12.70
2023-08-16T05:29:12.095Z,8.20
2023-08-16T05:31:42.976Z,25.20
2023-08-16T05:34:11.558Z,17.30
2023-08-16T05:36:51.227Z,15.40
2023-08-16T05:39:19.576Z,49.40
2023-08-16T05:41:48.037Z,48.30
2023-08-16T05:44:16.202Z,35.50
2023-08-16T05:46:44.557Z,46.50
2023-08-16T05:49:13.466Z,11.50
2023-08-16T05:51:41.928Z,21.60
2023-08-16T05:54:10.188Z,42.30
2023-08-16T05:56:39.184Z,12.30
2023-08-16T05:59:07.296Z,8.40
2023-08-16T06:01:35.505Z,6.80
2023-08-16T06:04:04.174Z,10.00
2023-08-16T06:06:32.491Z,20.30
2023-08-16T06:09:00.876Z,8.50
2023-08-16T06:11:29.049Z,13.90
2023-08-16T06:13:57.661Z,8.90
2023-08-16T06:16:25.902Z,10.10
2023-08-16T06:18:54.511Z,9.50
2023-08-16T06:21:23.065Z,10.30
2023-08-16T06:23:52.287Z,12.00
2023-08-16T06:26:20.773Z,12.50
2023-08-16T06:28:49.970Z,12.00
2023-08-16T06:31:18.534Z,11.60
2023-08-16T06:33:46.821Z,10.10
2023-08-16T06:36:15.281Z,12.30
2023-08-16T06:38:44.943Z,21.70
2023-08-16T06:41:14.229Z,31.20
2023-08-16T06:43:42.566Z,22.40
2023-08-16T06:46:10.785Z,17.30
2023-08-16T06:48:39.039Z,15.70
2023-08-16T06:51:07.406Z,16.10
2023-08-16T06:53:35.749Z,12.90
2023-08-16T06:56:07.141Z,20.50
2023-08-16T06:58:35.553Z,17.40
2023-08-16T07:01:04.109Z,20.50
2023-08-16T07:03:32.460Z,16.90
2023-08-16T07:06:01.027Z,10.70
2023-08-16T07:08:31.524Z,9.00
2023-08-16T07:10:59.748Z,9.10
2023-08-16T07:13:28.145Z,10.30
2023-08-16T07:15:56.778Z,9.60
2023-08-16T07:18:25.858Z,10.10
2023-08-16T07:20:56.098Z,10.40
2023-08-16T07:23:24.457Z,10.70
2023-08-16T07:25:57.723Z,10.00
2023-08-16T07:28:26.365Z,10.10
2023-08-16T07:30:56.127Z,9.70
2023-08-16T07:33:24.507Z,9.00
2023-08-16T07:35:53.043Z,8.20
2023-08-16T07:38:21.263Z,7.30
2023-08-16T07:40:50.596Z,7.50
2023-08-16T07:43:18.841Z,7.30
2023-08-16T07:45:52.998Z,7.00
2023-08-16T07:48:22.116Z,8.60
2023-08-16T07:50:51.465Z,9.60
2023-08-16T07:53:20.025Z,7.90
2023-08-16T07:55:48.206Z,7.90
2023-08-16T07:58:17.163Z,10.20
2023-08-16T08:00:49.375Z,10.20
2023-08-16T08:03:22.242Z,10.70
2023-08-16T08:05:50.593Z,9.70
2023-08-16T08:08:19.015Z,10.40
2023-08-16T08:10:47.290Z,10.50
2023-08-16T08:13:15.476Z,11.30
2023-08-16T08:15:43.890Z,11.60
2023-08-16T08:18:12.254Z,11.10
2023-08-16T08:20:40.734Z,11.20
2023-08-16T08:23:09.059Z,10.80
2023-08-16T08:25:37.178Z,13.00
2023-08-16T08:28:05.837Z,11.30
2023-08-16T08:30:35.080Z,12.20
2023-08-16T08:33:03.576Z,11.40
2023-08-16T08:35:34.703Z,12.70
2023-08-16T08:38:03.641Z,15.30
2023-08-16T08:40:32.881Z,14.70
2023-08-16T08:43:02.520Z,17.30
2023-08-16T08:45:31.865Z,15.10
2023-08-16T08:48:01.392Z,14.20
2023-08-16T08:50:30.251Z,12.90
2023-08-16T08:52:58.720Z,13.30
2023-08-16T08:55:33.646Z,12.00
2023-08-16T08:58:03.732Z,11.80
2023-08-16T09:00:38.961Z,14.30
2023-08-16T09:03:09.529Z,14.50
2023-08-16T09:05:43.456Z,11.60
2023-08-16T09:08:14.702Z,13.10
2023-08-16T09:10:44.277Z,12.10
2023-08-16T09:13:13.231Z,11.10
2023-08-16T09:15:41.713Z,13.70
2023-08-16T09:18:15.472Z,15.20
2023-08-16T09:20:45.306Z,13.40
2023-08-16T09:23:15.083Z,14.20
2023-08-16T09:25:43.445Z,10.10
2023-08-16T09:28:12.643Z,10.40
2023-08-16T09:30:44.108Z,10.10
2023-08-16T09:33:16.321Z,10.10
2023-08-16T09:35:50.425Z,10.00
2023-08-16T09:38:38.041Z,11.50
2023-08-16T09:41:15.388Z,11.90
2023-08-16T09:43:43.878Z,12.70
2023-08-16T09:46:13.087Z,14.30
2023-08-16T09:49:10.631Z,12.90
2023-08-16T09:54:03.389Z,11.80
2023-08-16T09:59:37.038Z,10.50
2023-08-16T10:09:34.990Z,9.00
2023-08-16T10:12:04.870Z,7.80
2023-08-16T10:14:34.902Z,7.70
2023-08-16T10:17:04.638Z,7.70
2023-08-16T10:19:41.970Z,7.50
2023-08-16T10:24:55.702Z,8.00
2023-08-16T10:27:25.855Z,7.80
2023-08-16T10:32:37.422Z,8.60
2023-08-16T10:35:07.860Z,8.10
2023-08-16T10:40:26.075Z,8.20
2023-08-16T10:42:59.337Z,8.20
2023-08-16T10:48:36.368Z,7.20
2023-08-16T10:51:06.366Z,7.50
2023-08-16T10:53:37.021Z,7.80
2023-08-16T10:56:06.873Z,8.00
2023-08-16T10:58:50.836Z,7.70
2023-08-16T11:01:21.584Z,7.10
2023-08-16T11:03:51.161Z,7.90
2023-08-16T11:06:20.582Z,7.10
2023-08-16T11:08:49.254Z,7.30
2023-08-16T11:11:17.707Z,7.10
2023-08-16T11:13:47.456Z,7.60
2023-08-16T11:16:15.692Z,8.00
2023-08-16T11:18:45.485Z,7.60
2023-08-16T11:21:18.103Z,8.20
2023-08-16T11:23:47.474Z,27.60
2023-08-16T11:26:16.742Z,20.00
2023-08-16T11:28:45.305Z,14.50
2023-08-16T11:31:13.896Z,10.40
2023-08-16T11:33:44.178Z,8.30
2023-08-16T11:36:15.055Z,7.80
2023-08-16T11:38:45.268Z,7.40
2023-08-16T11:41:19.573Z,8.00
2023-08-16T11:46:25.834Z,10.50
2023-08-16T11:48:55.795Z,7.80
2023-08-16T11:51:29.223Z,8.20
2023-08-16T11:54:00.118Z,7.60
2023-08-16T11:56:29.890Z,8.00
2023-08-16T11:59:01.045Z,7.50
2023-08-16T12:01:29.446Z,7.80
2023-08-16T12:04:00.715Z,7.40
2023-08-16T12:06:29.341Z,7.90
2023-08-16T12:08:57.825Z,8.90
2023-08-16T12:11:36.921Z,7.60
2023-08-16T12:14:07.663Z,7.40
2023-08-16T12:16:36.193Z,7.10
2023-08-16T12:19:04.732Z,7.00
2023-08-16T12:21:33.007Z,7.60
2023-08-16T12:24:01.306Z,7.90
2023-08-16T12:26:29.561Z,7.80
2023-08-16T12:28:57.892Z,7.60
2023-08-16T12:31:26.168Z,7.40
2023-08-16T12:33:54.479Z,8.30
2023-08-16T12:36:22.691Z,8.30
2023-08-16T12:38:51.272Z,7.80
2023-08-16T12:41:19.372Z,8.50
2023-08-16T12:43:47.660Z,8.10
2023-08-16T12:46:15.932Z,8.00
2023-08-16T12:48:44.327Z,7.40
2023-08-16T12:53:45.472Z,7.60
2023-08-16T12:56:14.771Z,8.00
2023-08-16T13:04:00.358Z,8.00
2023-08-16T13:06:31.858Z,7.90
2023-08-16T13:09:04.159Z,7.90
2023-08-16T13:11:36.646Z,8.50
2023-08-16T13:14:30.229Z,9.20
2023-08-16T13:19:47.639Z,8.80
2023-08-16T13:22:18.194Z,8.10
2023-08-16T13:27:38.496Z,8.60
2023-08-16T13:30:20.884Z,8.00
2023-08-16T13:33:05.541Z,8.50
2023-08-16T13:35:49.984Z,9.10
2023-08-16T13:38:19.131Z,9.10
2023-08-16T13:46:07.235Z,9.60
2023-08-16T13:48:35.729Z,10.00
2023-08-16T13:51:03.946Z,11.10
2023-08-16T13:53:32.055Z,9.20
2023-08-16T13:56:02.328Z,9.30
2023-08-16T13:58:32.906Z,8.80
2023-08-16T14:01:02.337Z,9.60
2023-08-16T14:03:30.736Z,14.50
2023-08-16T14:06:02.201Z,18.60
2023-08-16T14:08:31.109Z,21.90
2023-08-16T14:11:03.931Z,19.00
2023-08-16T14:13:32.711Z,15.40
2023-08-16T14:16:02.779Z,13.70
2023-08-16T14:18:32.275Z,13.20
2023-08-16T14:21:04.390Z,13.40
2023-08-16T14:23:33.356Z,13.30
2023-08-16T14:26:01.582Z,16.50
2023-08-16T14:28:29.975Z,16.20
2023-08-16T14:30:58.302Z,15.70
2023-08-16T14:33:26.677Z,15.30
2023-08-16T14:35:54.960Z,13.30
2023-08-16T14:38:23.192Z,13.20
2023-08-16T14:40:51.529Z,13.20
2023-08-16T14:43:19.716Z,14.30
2023-08-16T14:45:47.997Z,14.60
2023-08-16T14:48:16.626Z,14.60
2023-08-16T14:50:44.792Z,15.60
2023-08-16T14:53:13.096Z,18.40
2023-08-16T14:55:41.385Z,13.10
2023-08-16T14:58:09.750Z,16.10
2023-08-16T15:00:39.588Z,13.10
2023-08-16T15:03:08.145Z,16.00
2023-08-16T15:05:36.342Z,15.40
2023-08-16T15:08:04.817Z,13.40
2023-08-16T15:10:33.299Z,13.40
2023-08-16T15:13:01.620Z,12.40
2023-08-16T15:15:29.986Z,11.70
2023-08-16T15:17:58.223Z,10.80
2023-08-16T15:20:26.557Z,9.90
2023-08-16T15:22:54.712Z,8.40
2023-08-16T15:25:22.861Z,23.00
2023-08-16T15:27:51.734Z,14.30
2023-08-16T15:30:19.914Z,9.30
2023-08-16T15:32:48.386Z,6.40
2023-08-16T15:35:16.729Z,5.90
2023-08-16T15:37:44.943Z,7.10
2023-08-16T15:40:13.180Z,8.60
2023-08-16T15:42:42.084Z,24.30
2023-08-16T15:45:10.741Z,10.80
2023-08-16T15:47:39.015Z,8.30
2023-08-16T15:50:08.125Z,7.30
2023-08-16T15:52:36.459Z,10.00
2023-08-16T15:55:06.613Z,9.10
2023-08-16T15:57:35.083Z,8.30
2023-08-16T16:00:05.430Z,8.10
2023-08-16T16:02:42.120Z,7.70
2023-08-16T16:05:10.326Z,7.60
2023-08-16T16:07:38.515Z,13.50
2023-08-16T16:10:07.184Z,8.20
2023-08-16T16:12:35.777Z,7.90
2023-08-16T16:15:04.476Z,9.40
2023-08-16T16:17:32.700Z,10.60
2023-08-16T16:20:00.997Z,8.90
2023-08-16T16:22:29.114Z,7.60
2023-08-16T16:24:57.869Z,6.60
2023-08-16T16:27:26.221Z,6.80
2023-08-16T16:29:55.625Z,6.50
2023-08-16T16:32:24.707Z,5.70
2023-08-16T16:34:53.329Z,6.30
2023-08-16T16:37:22.012Z,6.30
2023-08-16T16:39:50.155Z,6.00
2023-08-16T16:42:18.420Z,5.90
2023-08-16T16:44:46.528Z,5.90
2023-08-16T16:47:15.805Z,6.50
2023-08-16T16:49:44.330Z,6.60
2023-08-16T16:52:12.644Z,6.40
2023-08-16T16:54:40.921Z,9.10
2023-08-16T16:57:09.289Z,9.00
2023-08-16T16:59:38.270Z,9.30
2023-08-16T17:02:07.818Z,9.10
2023-08-16T17:04:36.073Z,6.90
2023-08-16T17:07:06.044Z,6.40
2023-08-16T17:09:37.103Z,7.00
2023-08-16T17:12:06.050Z,7.30
2023-08-16T17:14:34.499Z,8.60
2023-08-16T17:17:02.714Z,8.10
2023-08-16T17:19:31.280Z,7.30
2023-08-16T17:21:59.568Z,8.90
2023-08-16T17:24:27.982Z,9.80
2023-08-16T17:26:56.253Z,10.00
2023-08-16T17:29:24.515Z,10.00
2023-08-16T17:31:53.675Z,10.70
2023-08-16T17:34:22.879Z,8.70
2023-08-16T17:36:51.348Z,9.40
2023-08-16T17:39:20.534Z,8.20
2023-08-16T17:41:48.846Z,8.00
2023-08-16T17:44:17.344Z,8.30
2023-08-16T17:46:45.576Z,8.50
2023-08-16T17:49:13.904Z,8.20
2023-08-16T17:51:42.511Z,22.20
2023-08-16T17:54:10.785Z,8.40
2023-08-16T17:56:38.985Z,8.00
2023-08-16T17:59:07.157Z,7.90
2023-08-16T18:01:36.576Z,8.10
2023-08-16T18:04:05.653Z,8.60
2023-08-16T18:06:34.313Z,8.00
2023-08-16T18:09:02.500Z,7.50
2023-08-16T18:11:30.766Z,8.20
2023-08-16T18:13:58.907Z,7.20
2023-08-16T18:16:27.384Z,7.40
2023-08-16T18:18:55.479Z,12.10
2023-08-16T18:21:24.871Z,9.90
2023-08-16T18:23:53.204Z,9.10
2023-08-16T18:26:21.837Z,8.10
2023-08-16T18:28:50.138Z,7.90
2023-08-16T18:31:18.649Z,8.10
2023-08-16T18:33:47.310Z,8.10
2023-08-16T18:36:16.415Z,8.00
2023-08-16T18:38:44.741Z,7.80
2023-08-16T18:41:12.790Z,7.80
2023-08-16T18:43:41.313Z,7.40
2023-08-16T18:46:09.703Z,6.90
2023-08-16T18:48:38.902Z,7.70
2023-08-16T18:51:07.160Z,6.80
2023-08-16T18:53:35.995Z,6.50
2023-08-16T18:56:06.444Z,6.20
2023-08-16T18:58:34.933Z,6.40
2023-08-16T19:01:03.719Z,7.60
2023-08-16T19:03:32.224Z,7.30
2023-08-16T19:06:00.429Z,7.70
2023-08-16T19:08:28.681Z,7.60
2023-08-16T19:10:56.892Z,7.30
2023-08-16T19:13:25.184Z,7.20
2023-08-16T19:15:53.390Z,7.30
2023-08-16T19:18:21.508Z,7.20
2023-08-16T19:20:49.939Z,7.70
2023-08-16T19:23:18.114Z,7.60
2023-08-16T19:25:46.435Z,8.00
2023-08-16T19:28:14.705Z,7.60
2023-08-16T19:30:43.165Z,7.90
2023-08-16T19:33:12.790Z,8.10
2023-08-16T19:35:41.124Z,8.20
2023-08-16T19:38:09.688Z,7.60
2023-08-16T19:40:38.170Z,7.90
2023-08-16T19:43:06.480Z,8.10
2023-08-16T19:45:35.758Z,7.90
2023-08-16T19:48:04.400Z,8.60
2023-08-16T19:50:32.718Z,8.30
2023-08-16T19:53:01.405Z,8.60
2023-08-16T19:55:29.874Z,7.80
2023-08-16T19:57:58.182Z,7.90
2023-08-16T20:00:28.147Z,7.80
2023-08-16T20:02:57.563Z,7.50
2023-08-16T20:05:25.930Z,8.00
2023-08-16T20:07:54.457Z,8.00
2023-08-16T20:10:22.605Z,7.80
2023-08-16T20:12:50.700Z,8.00
2023-08-16T20:15:19.127Z,7.50
2023-08-16T20:17:47.397Z,7.10
2023-08-16T20:20:15.747Z,7.50
2023-08-16T20:22:46.753Z,6.80
2023-08-16T20:25:15.206Z,7.20
2023-08-16T20:27:43.262Z,7.70
2023-08-16T20:30:12.376Z,7.80
2023-08-16T20:32:40.664Z,8.30
2023-08-16T20:35:09.163Z,9.40
2023-08-16T20:37:37.628Z,9.30
2023-08-16T20:40:07.797Z,9.20
2023-08-16T20:42:39.384Z,9.10
2023-08-16T20:45:09.786Z,9.40
2023-08-16T20:47:39.377Z,10.70
2023-08-16T20:50:10.815Z,9.90
2023-08-16T20:52:43.099Z,9.80
2023-08-16T20:55:12.805Z,10.40
2023-08-16T20:57:40.985Z,10.10
2023-08-16T21:00:09.557Z,8.70
2023-08-16T21:02:37.811Z,8.60
2023-08-16T21:05:06.335Z,9.20
2023-08-16T21:07:34.550Z,7.70
2023-08-16T21:10:02.948Z,7.90
2023-08-16T21:12:31.506Z,8.00
2023-08-16T21:14:59.865Z,6.90
2023-08-16T21:17:28.147Z,6.90
2023-08-16T21:19:56.641Z,6.90
2023-08-16T21:22:24.888Z,7.30
2023-08-16T21:24:53.536Z,7.20
2023-08-16T21:27:21.855Z,6.70
2023-08-16T21:29:50.084Z,7.10
2023-08-16T21:32:18.591Z,6.90
2023-08-16T21:34:46.738Z,6.80
2023-08-16T21:37:14.952Z,6.30
2023-08-16T21:39:43.202Z,6.50
2023-08-16T21:42:11.611Z,6.10
2023-08-16T21:44:40.211Z,6.00
2023-08-16T21:47:09.219Z,5.90
2023-08-16T21:49:37.554Z,6.30
2023-08-16T21:52:05.872Z,7.00
2023-08-16T21:54:35.289Z,7.10
2023-08-16T21:57:03.963Z,6.70
2023-08-16T21:59:32.369Z,5.20
2023-08-16T22:02:00.524Z,5.40
2023-08-16T22:04:28.838Z,6.70
2023-08-16T22:06:57.212Z,6.00
2023-08-16T22:09:25.522Z,6.10
2023-08-16T22:11:53.917Z,6.00
2023-08-16T22:14:22.547Z,5.90
2023-08-16T22:16:50.760Z,5.80
2023-08-16T22:19:19.060Z,5.80
2023-08-16T22:21:49.186Z,5.30
2023-08-16T22:24:17.705Z,5.20
2023-08-16T22:26:46.078Z,5.30
2023-08-16T22:29:14.320Z,5.20
2023-08-16T22:31:42.693Z,5.20
2023-08-16T22:34:11.613Z,5.20
2023-08-16T22:36:39.699Z,5.60
2023-08-16T22:39:08.203Z,5.70
2023-08-16T22:41:36.612Z,6.40
2023-08-16T22:44:04.810Z,5.40
2023-08-16T22:46:33.135Z,5.80
2023-08-16T22:49:01.345Z,6.00
2023-08-16T22:51:29.572Z,6.00
2023-08-16T22:53:57.844Z,5.90
2023-08-16T22:56:26.088Z,5.80
2023-08-16T22:58:54.402Z,6.60
2023-08-16T23:01:23.070Z,6.10
2023-08-16T23:03:53.285Z,6.10
2023-08-16T23:06:21.778Z,5.80
2023-08-16T23:08:50.624Z,5.50
2023-08-16T23:11:18.794Z,6.10
2023-08-16T23:13:47.151Z,6.40
2023-08-16T23:16:15.267Z,6.20
2023-08-16T23:18:43.476Z,6.20
2023-08-16T23:21:12.188Z,6.40
2023-08-16T23:23:41.318Z,6.10
2023-08-16T23:26:09.794Z,6.00
2023-08-16T23:28:38.190Z,6.10
2023-08-16T23:31:06.674Z,5.90
2023-08-16T23:33:34.992Z,6.80
2023-08-16T23:36:03.395Z,6.60
2023-08-16T23:38:31.540Z,6.40
2023-08-16T23:40:59.693Z,6.70
2023-08-16T23:43:27.874Z,7.10
2023-08-16T23:45:56.014Z,6.70
2023-08-16T23:48:24.896Z,5.90
2023-08-16T23:50:53.244Z,6.00
2023-08-16T23:53:21.467Z,6.30
2023-08-16T23:55:49.753Z,6.70
2023-08-16T23:58:17.878Z,6.60
